Latest Weather Observations for Brisbane Airport

IDQ60801

Issued at 9:32 am EST Sunday 30 August 2015 (issued every 30 minutes, with the page automatically refreshed every 10 minutes)

About weather observations | Map of weather stations | Latest weather observations for QLD | Other Formats
Station Details ID: 040842 Name: BRISBANE AERO Lat: -27.39 Lon: 153.13 Height: 4.51 m
Data from the previous 72 hours. | See also: Recent months at Brisbane Airport
Date/Time
EST
Temp
°C
App
Temp
°C
Dew
Point
Rel
Hum
%
Delta-T
°C
Wind Press
QNH
hPa
Press
MSL
hPa
Rain
since 9 am
mm
Dir
 
Spd
km/h
Gust
km/h
Spd
kts
Gust
kts
30/09:00am 18.1 14.2 9.5 57 4.5 WSW 20 28 11 15 1017.8 1017.8 15.4
30/08:30am 16.8 13.1 10.2 65 3.5 WSW 20 28 11 15 1018.0 1017.9 15.4
30/08:00am 15.5 13.3 10.8 73 2.5 WSW 13 17 7 9 1017.5 1017.5 15.4
30/07:30am 14.7 13.2 11.9 83 1.5 WSW 11 17 6 9 1017.4 1017.4 15.4
30/07:00am 14.6 13.3 12.6 88 1.1 W 11 13 6 7 1017.5 1017.5 15.4
30/06:30am 14.5 12.8 12.3 87 1.2 W 13 17 7 9 1017.2 1017.2 15.4
30/06:00am 14.0 12.4 12.7 92 0.7 W 13 15 7 8 1016.8 1016.8 15.4
30/05:30am 14.4 13.1 13.7 96 0.4 WSW 13 15 7 8 1016.7 1016.7 15.4
30/05:00am 14.8 14.3 13.9 94 0.5 W 9 11 5 6 1016.4 1016.4 15.4
30/04:30am 14.3 13.7 13.6 96 0.4 SW 9 13 5 7 1016.3 1016.3 15.4
30/04:00am 15.0 14.3 14.3 96 0.4 SSW 11 13 6 7 1016.3 1016.3 15.4
30/03:30am 15.1 14.1 14.6 97 0.3 SW 13 17 7 9 1016.9 1016.9 15.4
30/03:00am 15.2 14.9 14.5 96 0.4 SSW 9 15 5 8 1016.9 1016.9 15.4
30/02:30am 15.4 14.2 15.1 98 0.2 SW 15 19 8 10 1017.4 1017.4 15.4
30/02:00am 15.5 15.9 15.2 98 0.2 E 7 11 4 6 1016.4 1016.4 15.4
30/01:30am 15.5 16.4 15.2 98 0.2 WSW 4 7 2 4 1018.0 1017.9 15.4
30/01:00am 15.7 15.7 15.2 97 0.3 WSW 9 11 5 6 1018.9 1018.8 15.0
30/12:30am 15.9 15.6 15.4 97 0.3 WSW 11 13 6 7 1019.3 1019.2 15.0
30/12:00am 16.0 15.7 15.5 97 0.3 WSW 11 13 6 7 1019.2 1019.1 14.8
 
Date/Time
EST
Temp
°C
App
Temp
°C
Dew
Point
Rel
Hum
%
Delta-T
°C
Wind Press
QNH
hPa
Press
MSL
hPa
Rain
since 9 am
mm
Dir
 
Spd
km/h
Gust
km/h
Spd
kts
Gust
kts
29/11:30pm 16.1 15.5 15.6 97 0.3 WSW 13 15 7 8 1019.4 1019.3 14.8
29/11:00pm 15.8 15.1 15.3 97 0.3 SW 13 13 7 7 1019.1 1019.0 14.8
29/10:30pm 15.6 16.4 14.9 96 0.4 SSW 4 9 2 5 1018.9 1018.8 14.8
29/10:00pm 15.9 16.3 15.2 96 0.4 SSW 7 9 4 5 1019.4 1019.3 14.8
29/09:30pm 16.0 16.3 15.0 94 0.6 ESE 7 11 4 6 1019.6 1019.5 14.8
29/09:00pm 16.0 16.9 15.1 94 0.5 SSE 4 9 2 5 1019.8 1019.7 14.4
29/08:30pm 16.0 16.6 15.3 96 0.4 S 6 7 3 4 1020.3 1020.2 14.0
29/08:00pm 16.0 16.0 15.3 96 0.4 SSW 9 11 5 6 1020.5 1020.4 13.6
29/07:35pm 16.1 16.2 15.4 96 0.4 SSW 9 11 5 6 1020.6 1020.5 13.0
29/07:30pm 16.1 16.1 15.2 94 0.5 SSW 9 11 5 6 1020.6 1020.5 13.0
29/07:00pm 16.0 16.5 15.1 94 0.5 SSE 6 9 3 5 1020.2 1020.1 12.8
29/06:30pm 16.0 15.9 15.0 94 0.6 SSW 9 13 5 7 1020.4 1020.3 12.4
29/06:01pm 15.9 14.8 15.2 96 0.4 SSW 15 19 8 10 1020.4 1020.3 11.0
29/06:00pm 16.0 15.2 15.1 94 0.5 SSW 13 19 7 10 1020.3 1020.2 10.8
29/05:49pm 16.0 15.2 15.0 94 0.6 SSW 13 17 7 9 1020.0 1019.9 9.8
29/05:43pm 16.1 15.7 15.1 94 0.6 SSW 11 17 6 9 1020.0 1019.9 9.2
29/05:30pm 16.4 16.3 15.0 91 0.8 SSW 9 15 5 8 1019.9 1019.8 6.4
29/05:21pm 17.3 15.9 14.5 83 1.6 SSW 15 19 8 10 1019.7 1019.6 2.4
29/05:04pm 18.1 18.2 14.4 79 2.1 SE 7 9 4 5 1019.0 1018.9 1.0
29/05:00pm 18.8 18.9 13.9 73 2.8 SE 6 9 3 5 1018.9 1018.8 0.6
29/04:54pm 19.9 19.8 13.4 66 3.7 SE 6 9 3 5 1018.9 1018.8 0.0
29/04:30pm 20.1 19.4 13.2 64 3.9 E 9 13 5 7 1018.5 1018.4 0.0
29/04:00pm 20.4 19.6 12.8 61 4.3 ENE 9 13 5 7 1018.4 1018.3 0.0
29/03:30pm 20.5 18.6 11.9 57 4.8 ENE 13 19 7 10 1018.3 1018.2 0.0
29/03:00pm 20.7 18.2 11.0 53 5.3 NE 15 19 8 10 1018.6 1018.5 0.0
29/02:30pm 21.2 18.8 11.4 53 5.4 ENE 15 20 8 11 1019.0 1018.9 0.0
29/02:00pm 21.8 18.8 10.7 49 6.1 E 17 24 9 13 1019.3 1019.2 0.0
29/01:30pm 21.2 18.9 10.3 49 5.9 ENE 13 19 7 10 1020.1 1020.0 0.0
29/01:00pm 21.4 19.0 10.1 48 6.1 ENE 13 22 7 12 1020.5 1020.4 0.0
29/12:30pm 21.4 18.6 10.1 48 6.1 ENE 15 22 8 12 1021.0 1020.9 0.0
29/12:00pm 21.6 19.3 10.6 49 6.0 ESE 13 19 7 10 1021.5 1021.4 0.0
29/11:30am 21.9 19.5 10.1 47 6.4 ESE 13 20 7 11 1021.9 1021.8 0.0
29/11:00am 22.3 20.2 11.1 49 6.2 ESE 13 17 7 9 1022.3 1022.2 0.0
29/10:30am 21.5 19.7 10.9 51 5.8 SSE 11 15 6 8 1022.8 1022.7 0.0
29/10:00am 19.9 17.9 10.0 53 5.3 S 11 17 6 9 1022.9 1022.8 0.0
29/09:30am 18.5 15.7 8.6 52 5.1 SSW 13 19 7 10 1023.2 1023.1 0.0
29/09:00am 17.7 14.1 8.3 54 4.8 SSW 17 20 9 11 1023.3 1023.2 0.2
29/08:30am 16.2 12.5 7.8 57 4.2 SSW 17 22 9 12 1023.3 1023.2 0.2
29/08:00am 14.9 11.1 7.4 61 3.7 SSW 17 24 9 13 1023.0 1022.9 0.2
29/07:30am 14.0 11.0 7.5 65 3.2 SSW 13 17 7 9 1022.9 1022.8 0.2
29/07:00am 13.2 9.7 7.2 67 2.9 SSW 15 19 8 10 1022.6 1022.5 0.2
29/06:30am 11.5 8.5 7.6 77 1.9 SSW 13 15 7 8 1022.7 1022.6 0.2
29/06:00am 11.1 8.1 7.8 80 1.6 SSW 13 17 7 9 1022.4 1022.3 0.2
29/05:30am 11.3 7.6 7.8 79 1.7 SSW 17 19 9 10 1022.0 1021.9 0.2
29/05:00am 11.8 8.8 7.9 77 1.9 SSW 13 19 7 10 1021.6 1021.5 0.2
29/04:30am 11.5 8.2 8.2 80 1.6 SSW 15 19 8 10 1021.5 1021.4 0.2
29/04:00am 12.0 8.7 8.1 77 1.9 SSW 15 19 8 10 1021.6 1021.5 0.2
29/03:30am 11.5 8.4 8.7 83 1.4 SSW 15 19 8 10 1022.0 1021.9 0.2
29/03:00am 12.4 9.8 9.2 81 1.6 SSW 13 15 7 8 1021.8 1021.7 0.2
29/02:30am 11.7 9.7 10.1 90 0.8 SW 11 13 6 7 1022.2 1022.1 0.2
29/02:00am 12.0 10.1 10.4 90 0.8 SSW 11 13 6 7 1022.0 1021.9 0.2
29/01:30am 12.2 10.4 10.7 90 0.8 SSW 11 13 6 7 1022.2 1022.1 0.2
29/01:00am 12.3 11.0 11.2 93 0.6 SW 9 11 5 6 1022.3 1022.2 0.2
29/12:30am 12.8 11.5 11.3 91 0.8 SSW 9 11 5 6 1022.4 1022.3 0.2
29/12:00am 13.9 13.0 11.4 85 1.3 SSW 7 9 4 5 1022.5 1022.4 0.2
 
Date/Time
EST
Temp
°C
App
Temp
°C
Dew
Point
Rel
Hum
%
Delta-T
°C
Wind Press
QNH
hPa
Press
MSL
hPa
Rain
since 9 am
mm
Dir
 
Spd
km/h
Gust
km/h
Spd
kts
Gust
kts
28/11:30pm 13.5 12.6 11.4 87 1.1 SW 7 9 4 5 1022.4 1022.3 0.2
28/11:00pm 13.9 13.0 11.3 84 1.4 SW 7 9 4 5 1022.2 1022.1 0.2
28/10:30pm 13.8 12.9 11.3 85 1.3 SSW 7 9 4 5 1022.5 1022.4 0.2
28/10:00pm 14.8 13.5 11.2 79 1.9 SSW 9 11 5 6 1022.6 1022.5 0.2
28/09:30pm 15.1 13.8 11.3 78 2.0 SSW 9 11 5 6 1022.6 1022.5 0.2
28/09:00pm 14.3 14.7 11.3 82 1.6 CALM 0 0 0 0 1022.6 1022.5 0.2
28/08:30pm 15.2 14.1 11.9 81 1.8 SE 9 9 5 5 1022.4 1022.3 0.2
28/08:00pm 16.3 15.5 11.7 74 2.5 SE 7 9 4 5 1022.1 1022.0 0.2
28/07:30pm 17.2 16.4 11.7 70 3.0 ESE 7 9 4 5 1021.7 1021.6 0.2
28/07:00pm 18.1 16.9 11.7 66 3.5 ESE 9 13 5 7 1021.3 1021.2 0.2
28/06:30pm 18.1 17.2 12.5 70 3.1 E 9 15 5 8 1020.6 1020.5 0.2
28/06:00pm 18.1 17.0 12.1 68 3.3 E 9 15 5 8 1020.2 1020.1 0.2
28/05:30pm 18.9 17.1 12.2 65 3.7 ENE 13 19 7 10 1019.7 1019.6 0.2
28/05:00pm 19.6 17.5 12.4 63 4.0 ENE 15 20 8 11 1019.4 1019.3 0.2
28/04:30pm 20.1 17.5 13.2 64 3.9 NE 19 26 10 14 1019.2 1019.1 0.2
28/04:00pm 20.6 17.9 13.4 63 4.1 NE 20 28 11 15 1019.0 1018.9 0.2
28/03:30pm 21.1 17.8 11.5 54 5.3 NE 20 26 11 14 1018.7 1018.6 0.2
28/03:00pm 21.5 18.7 12.5 56 5.1 NE 19 26 10 14 1018.8 1018.7 0.2
28/02:30pm 21.5 18.6 12.9 58 4.9 NE 20 24 11 13 1018.9 1018.8 0.2
28/02:00pm 21.9 19.4 13.6 59 4.8 NE 19 26 10 14 1019.1 1019.0 0.2
28/01:30pm 22.7 21.7 10.2 45 6.8 S 6 15 3 8 1019.5 1019.4 0.2
28/01:00pm 22.7 20.7 10.0 44 6.9 SSW 11 17 6 9 1019.9 1019.8 0.2
28/12:30pm 21.4 19.0 8.7 44 6.7 SW 11 17 6 9 1020.4 1020.3 0.2
28/12:00pm 20.7 19.3 12.1 58 4.8 S 11 15 6 8 1020.7 1020.6 0.2
28/11:30am 20.2 18.2 11.5 57 4.8 SSW 13 17 7 9 1021.6 1021.5 0.2
28/11:00am 20.2 18.5 12.5 61 4.3 SSW 13 20 7 11 1022.1 1022.0 0.2
28/10:30am 18.9 16.2 12.8 67 3.4 SW 19 28 10 15 1022.4 1022.3 0.2
28/10:00am 18.9 16.7 13.4 70 3.1 SW 17 22 9 12 1022.6 1022.5 0.2
28/09:30am 18.4 17.0 14.6 78 2.2 SW 15 20 8 11 1022.4 1022.3 0.0
28/09:00am 17.7 17.6 14.9 84 1.6 SSW 9 11 5 6 1022.2 1022.1 4.8
28/08:30am 17.0 16.6 15.3 90 1.0 WSW 11 13 6 7 1022.4 1022.3 4.8
28/08:00am 16.5 17.4 15.1 91 0.8 SW 4 9 2 5 1022.2 1022.1 4.8
28/07:30am 15.7 15.5 14.8 94 0.5 S 9 11 5 6 1021.8 1021.7 4.8
28/07:00am 15.4 15.1 14.5 94 0.5 SW 9 13 5 7 1021.7 1021.6 4.8
28/06:30am 15.1 15.2 14.4 96 0.4 S 7 9 4 5 1021.2 1021.1 4.8
28/06:00am 15.0 14.7 14.5 97 0.3 SSW 9 11 5 6 1021.0 1020.9 4.8
28/05:30am 15.0 14.7 14.3 96 0.4 SSW 9 13 5 7 1020.7 1020.6 4.8
28/05:00am 15.1 13.7 14.6 97 0.3 SW 15 19 8 10 1020.8 1020.7 4.8
28/04:30am 15.0 14.4 14.5 97 0.3 SSW 11 13 6 7 1019.9 1019.8 4.8
28/04:00am 15.0 14.0 14.5 97 0.3 SSW 13 15 7 8 1020.0 1019.9 4.8
28/03:30am 15.0 14.0 14.5 97 0.3 SSW 13 17 7 9 1020.0 1019.9 4.6
28/03:00am 15.2 15.0 14.8 97 0.2 S 9 11 5 6 1020.0 1019.9 4.4
28/02:30am 15.1 16.6 14.6 97 0.3 CALM 0 0 0 0 1020.2 1020.1 4.2
28/02:00am 15.0 15.1 14.5 97 0.3 S 7 9 4 5 1020.6 1020.5 4.0
28/01:30am 15.0 14.7 14.3 96 0.4 SW 9 13 5 7 1021.1 1021.0 3.2
28/01:16am 15.1 15.1 14.2 94 0.5 SW 7 11 4 6 1021.0 1020.9 1.8
28/01:00am 15.1 14.4 14.2 94 0.5 SSW 11 15 6 8 1020.9 1020.8 1.6
28/12:30am 15.1 15.0 13.8 92 0.7 SSW 7 9 4 5 1021.1 1021.0 1.6
28/12:00am 15.1 14.6 13.7 91 0.8 S 9 11 5 6 1021.3 1021.2 1.6
 
Date/Time
EST
Temp
°C
App
Temp
°C
Dew
Point
Rel
Hum
%
Delta-T
°C
Wind Press
QNH
hPa
Press
MSL
hPa
Rain
since 9 am
mm
Dir
 
Spd
km/h
Gust
km/h
Spd
kts
Gust
kts
27/11:30pm 15.4 15.1 14.3 93 0.6 SSW 9 11 5 6 1021.3 1021.2 1.6
27/11:00pm 15.8 16.1 14.6 93 0.7 SSW 6 9 3 5 1021.3 1021.2 1.6
27/10:30pm 15.9 15.3 14.5 91 0.8 SW 11 13 6 7 1021.3 1021.2 1.6
27/10:00pm 15.8 16.9 14.6 93 0.7 SW 2 7 1 4 1021.2 1021.1 1.6
27/09:30pm 16.0 15.3 14.2 89 1.0 WSW 11 15 6 8 1021.6 1021.5 1.6
27/09:00pm 15.6 16.3 14.4 93 0.7 SSW 4 9 2 5 1021.6 1021.5 1.6
27/08:30pm 15.7 17.1 14.3 91 0.8 CALM 0 0 0 0 1021.3 1021.2 1.6
27/08:00pm 15.5 16.9 14.3 92 0.7 CALM 0 0 0 0 1021.2 1021.1 1.6
27/07:30pm 15.3 16.7 14.4 94 0.5 CALM 0 0 0 0 1021.0 1020.9 1.6
27/07:00pm 15.5 16.0 14.1 91 0.8 ESE 4 7 2 4 1020.7 1020.6 1.6
27/06:30pm 15.4 16.7 14.0 91 0.8 CALM 0 0 0 0 1020.7 1020.6 1.6
27/06:00pm 15.6 15.5 14.0 90 0.9 S 7 9 4 5 1020.5 1020.4 1.6
27/05:30pm 15.7 15.7 14.1 90 0.9 SSW 7 11 4 6 1020.2 1020.1 1.6
27/05:00pm 16.0 16.3 14.6 91 0.8 SSE 6 9 3 5 1020.0 1019.9 1.6
27/04:30pm 15.8 15.3 13.8 88 1.1 SSE 9 13 5 7 1019.8 1019.7 1.6
27/04:00pm 15.8 15.3 13.8 88 1.1 SSE 9 11 5 6 1020.1 1020.0 1.4
27/03:43pm 16.1 15.2 13.6 85 1.4 S 11 15 6 8 1020.3 1020.2 1.2
27/03:30pm 16.4 13.8 13.2 81 1.8 SW 19 24 10 13 1020.6 1020.5 0.8
27/03:16pm 18.4 15.5 11.0 62 4.0 SW 17 20 9 11 1020.1 1020.0 0.0
27/03:00pm 19.4 15.5 9.3 52 5.3 WSW 20 28 11 15 1020.0 1019.9 0.0
27/02:30pm 21.2 19.8 7.4 41 7.1 E 4 11 2 6 1019.6 1019.5 0.0
27/02:00pm 20.9 19.0 9.2 47 6.2 N 9 13 5 7 1019.7 1019.6 0.0
27/01:30pm 22.0 19.6 8.5 42 7.1 NE 11 13 6 7 1019.2 1019.1 0.0
27/01:00pm 22.1 18.8 9.7 45 6.7 NNE 17 20 9 11 1019.3 1019.2 0.0
27/12:30pm 23.3 20.8 6.5 34 8.6 N 9 15 5 8 1019.7 1019.6 0.0
27/12:00pm 22.5 19.6 4.9 31 8.7 SW 9 13 5 7 1020.2 1020.1 0.0
27/11:30am 21.9 19.2 5.4 34 8.2 WSW 9 17 5 9 1020.5 1020.4 0.0
27/11:00am 21.0 18.4 6.2 38 7.4 S 9 13 5 7 1020.9 1020.8 0.0
27/10:30am 20.7 18.8 8.9 46 6.2 SE 9 13 5 7 1021.1 1021.0 0.0
27/10:00am 19.3 18.1 9.7 53 5.1 SE 6 11 3 6 1021.3 1021.2 0.0

Other Formats:

Comma delimited format used in spreadsheet applications
http://www.bom.gov.au/fwo/IDQ60801/IDQ60801.94578.axf

JavaScript Object Notation format (JSON) in row-major order
http://www.bom.gov.au/fwo/IDQ60801/IDQ60801.94578.json